Station Historical Data
Daily Summary for May 21, 2012 Units:  Both    English   Metric
« Previous Day
Next Day »
Daily Weekly Monthly Yearly Custom
  High: Low: Average:
Temperature: 79.3 °F /  26.3 °C 59.9 °F /  15.5 °C 69.8 °F /  21 °C
Dew Point: 67.5 °F /  19.7 °C 58.2 °F /  14.6 °C 62.9 °F /  17.2 °C
Humidity: 94% 55% 80%
Wind Speed: 34.0mph /  54.7km/h - 3.2mph /  5.1km/h
Wind Gust: 34.0mph /  54.7km/h - -
Wind- - SW
Pressure: 30.04 in /  1017.2 hPa 29.90 in /  1012.4 hPa -
Precipitation: 1.04 in /  26.42 mm    
Historical Graphs
 
 
Tabular Data for May 21, 2012
Time Temperature Dew Point Pressure Wind Wind Speed Wind Gust Humidity Rainfall Rate (Hourly) Conditions
00:00 68.4 °F /  20.2 °C 64.7 °F /  18.2 °C 30.01in /  1016.1hPa ENE 1.0mph /  1.6km/h 1.0mph /  1.6km/h 88% 0.00in /  0mm
00:01 68.5 °F /  20.3 °C 64.8 °F /  18.2 °C 30.01in /  1016.1hPa East 1.0mph /  1.6km/h 1.0mph /  1.6km/h 88% 0.00in /  0mm
00:06 68.9 °F /  20.5 °C 64.9 °F /  18.3 °C 30.01in /  1016.1hPa Calm   1.0mph /  1.6km/h 87% 0.00in /  0mm
00:11 69.2 °F /  20.7 °C 64.8 °F /  18.2 °C 30.01in /  1016.1hPa Calm   1.0mph /  1.6km/h 86% 0.00in /  0mm
00:16 69.0 °F /  20.6 °C 64.3 °F /  17.9 °C 30.01in /  1016.1hPa East 1.0mph /  1.6km/h 1.0mph /  1.6km/h 85% 0.00in /  0mm
00:21 69.5 °F /  20.8 °C 64.5 °F /  18.1 °C 30.01in /  1016.1hPa Calm   1.0mph /  1.6km/h 84% 0.00in /  0mm
00:26 69.4 °F /  20.8 °C 64.4 °F /  18 °C 30.00in /  1015.8hPa ESE 1.0mph /  1.6km/h 1.0mph /  1.6km/h 84% 0.00in /  0mm
00:31 69.1 °F /  20.6 °C 64.1 °F /  17.8 °C 30.00in /  1015.8hPa ESE 1.0mph /  1.6km/h 2.0mph /  3.2km/h 84% 0.00in /  0mm
00:36 69.4 °F /  20.8 °C 64.0 °F /  17.8 °C 30.01in /  1016.1hPa ESE 1.0mph /  1.6km/h 2.0mph /  3.2km/h 83% 0.00in /  0mm
00:41 69.6 °F /  20.9 °C 64.2 °F /  17.9 °C 30.01in /  1016.1hPa Calm   1.0mph /  1.6km/h 83% 0.00in /  0mm
00:46 69.4 °F /  20.8 °C 64.0 °F /  17.8 °C 30.01in /  1016.1hPa Calm     83% 0.00in /  0mm
00:51 67.8 °F /  19.9 °C 63.5 °F /  17.5 °C 30.01in /  1016.1hPa Calm   2.0mph /  3.2km/h 86% 0.00in /  0mm
00:56 67.2 °F /  19.6 °C 63.8 °F /  17.7 °C 30.01in /  1016.1hPa Calm     89% 0.00in /  0mm
01:01 67.0 °F /  19.4 °C 64.0 °F /  17.8 °C 30.01in /  1016.1hPa Calm     90% 0.00in /  0mm
01:06 66.8 °F /  19.3 °C 63.8 °F /  17.7 °C 30.01in /  1016.1hPa Calm     90% 0.00in /  0mm
01:12 66.5 °F /  19.2 °C 63.5 °F /  17.5 °C 30.01in /  1016.1hPa Calm     90% 0.00in /  0mm
01:17 66.4 °F /  19.1 °C 63.7 °F /  17.6 °C 30.01in /  1016.1hPa Calm   1.0mph /  1.6km/h 91% 0.00in /  0mm
01:18 66.4 °F /  19.1 °C 63.7 °F /  17.6 °C 30.01in /  1016.1hPa Calm     91% 0.00in /  0mm
01:23 66.1 °F /  18.9 °C 63.4 °F /  17.4 °C 30.01in /  1016.1hPa NW 10.0mph /  16.1km/h 10.0mph /  16.1km/h 91% 0.00in /  0mm
01:28 66.9 °F /  19.4 °C 63.6 °F /  17.6 °C 30.01in /  1016.1hPa WNW 4.0mph /  6.4km/h 10.0mph /  16.1km/h 89% 0.00in /  0mm
01:33 67.8 °F /  19.9 °C 63.8 °F /  17.7 °C 30.02in /  1016.5hPa NNW 3.0mph /  4.8km/h 5.0mph /  8km/h 87% 0.00in /  0mm
01:38 68.5 °F /  20.3 °C 63.8 °F /  17.7 °C 30.02in /  1016.5hPa NW 8.0mph /  12.9km/h 13.0mph /  20.9km/h 85% 0.00in /  0mm
01:43 69.0 °F /  20.6 °C 64.0 °F /  17.8 °C 30.03in /  1016.8hPa NW 12.0mph /  19.3km/h 15.0mph /  24.1km/h 84% 0.00in /  0mm
01:48 69.3 °F /  20.7 °C 63.6 °F /  17.6 °C 30.03in /  1016.8hPa NNW 8.0mph /  12.9km/h 13.0mph /  20.9km/h 82% 0.00in /  0mm
01:53 69.3 °F /  20.7 °C 63.2 °F /  17.3 °C 30.03in /  1016.8hPa WNW 6.0mph /  9.7km/h 12.0mph /  19.3km/h 81% 0.00in /  0mm
01:58 69.3 °F /  20.7 °C 62.9 °F /  17.2 °C 30.03in /  1016.8hPa WNW 10.0mph /  16.1km/h 10.0mph /  16.1km/h 80% 0.00in /  0mm
02:03 69.1 °F /  20.6 °C 63.0 °F /  17.2 °C 30.03in /  1016.8hPa NNW 8.0mph /  12.9km/h 9.0mph /  14.5km/h 81% 0.00in /  0mm
02:08 68.8 °F /  20.4 °C 63.1 °F /  17.3 °C 30.03in /  1016.8hPa NNW 6.0mph /  9.7km/h 10.0mph /  16.1km/h 82% 0.00in /  0mm
02:13 68.5 °F /  20.3 °C 62.8 °F /  17.1 °C 30.03in /  1016.8hPa WNW 7.0mph /  11.3km/h 7.0mph /  11.3km/h 82% 0.00in /  0mm
02:14 68.5 °F /  20.3 °C 63.1 °F /  17.3 °C 30.03in /  1016.8hPa NW 4.0mph /  6.4km/h 7.0mph /  11.3km/h 83% 0.00in /  0mm
02:19 68.2 °F /  20.1 °C 63.2 °F /  17.3 °C 30.03in /  1016.8hPa NW 5.0mph /  8km/h 6.0mph /  9.7km/h 84% 0.00in /  0mm
02:24 67.9 °F /  19.9 °C 62.2 °F /  16.8 °C 30.03in /  1016.8hPa NNW 5.0mph /  8km/h 11.0mph /  17.7km/h 82% 0.00in /  0mm
02:29 67.3 °F /  19.6 °C 62.3 °F /  16.8 °C 30.04in /  1017.2hPa NW 4.0mph /  6.4km/h 8.0mph /  12.9km/h 84% 0.00in /  0mm
02:34 66.8 °F /  19.3 °C 62.2 °F /  16.8 °C 30.03in /  1016.8hPa NW 4.0mph /  6.4km/h 6.0mph /  9.7km/h 85% 0.00in /  0mm
02:40 66.4 °F /  19.1 °C 62.1 °F /  16.7 °C 30.03in /  1016.8hPa WNW 5.0mph /  8km/h 6.0mph /  9.7km/h 86% 0.00in /  0mm
02:45 65.7 °F /  18.7 °C 61.7 °F /  16.5 °C 30.02in /  1016.5hPa NW 4.0mph /  6.4km/h 9.0mph /  14.5km/h 87% 0.00in /  0mm
02:50 65.4 °F /  18.6 °C 61.8 °F /  16.6 °C 30.02in /  1016.5hPa NW 5.0mph /  8km/h 6.0mph /  9.7km/h 88% 0.00in /  0mm
02:55 65.2 °F /  18.4 °C 61.6 °F /  16.4 °C 30.02in /  1016.5hPa NNW 7.0mph /  11.3km/h 9.0mph /  14.5km/h 88% 0.00in /  0mm
03:00 65.1 °F /  18.4 °C 61.5 °F /  16.4 °C 30.01in /  1016.1hPa North 3.0mph /  4.8km/h 8.0mph /  12.9km/h 88% 0.00in /  0mm
03:05 65.1 °F /  18.4 °C 61.5 °F /  16.4 °C 30.01in /  1016.1hPa NNW 5.0mph /  8km/h 8.0mph /  12.9km/h 88% 0.00in /  0mm
03:10 65.0 °F /  18.3 °C 61.4 °F /  16.3 °C 30.00in /  1015.8hPa North 6.0mph /  9.7km/h 7.0mph /  11.3km/h 88% 0.00in /  0mm
03:15 64.9 °F /  18.3 °C 61.6 °F /  16.4 °C 30.00in /  1015.8hPa NNW 3.0mph /  4.8km/h 7.0mph /  11.3km/h 89% 0.00in /  0mm
03:20 64.7 °F /  18.2 °C 61.4 °F /  16.3 °C 29.99in /  1015.5hPa NE 4.0mph /  6.4km/h 11.0mph /  17.7km/h 89% 0.00in /  0mm
03:25 64.5 °F /  18.1 °C 61.2 °F /  16.2 °C 29.99in /  1015.5hPa NNW 6.0mph /  9.7km/h 11.0mph /  17.7km/h 89% 0.00in /  0mm
03:30 64.2 °F /  17.9 °C 61.2 °F /  16.2 °C 30.00in /  1015.8hPa SE 1.0mph /  1.6km/h 4.0mph /  6.4km/h 90% 0.00in /  0mm
03:35 64.0 °F /  17.8 °C 61.3 °F /  16.3 °C 30.00in /  1015.8hPa NNE 2.0mph /  3.2km/h 3.0mph /  4.8km/h 91% 0.00in /  0mm
03:40 63.8 °F /  17.7 °C 61.1 °F /  16.2 °C 30.00in /  1015.8hPa NNW 2.0mph /  3.2km/h 5.0mph /  8km/h 91% 0.00in /  0mm
03:46 63.8 °F /  17.7 °C 61.1 °F /  16.2 °C 30.00in /  1015.8hPa NW 4.0mph /  6.4km/h 5.0mph /  8km/h 91% 0.00in /  0mm
03:51 63.7 °F /  17.6 °C 61.0 °F /  16.1 °C 30.00in /  1015.8hPa NNW 1.0mph /  1.6km/h 4.0mph /  6.4km/h 91% 0.00in /  0mm
03:56 63.6 °F /  17.6 °C 60.9 °F /  16.1 °C 30.00in /  1015.8hPa North 1.0mph /  1.6km/h 4.0mph /  6.4km/h 91% 0.00in /  0mm
04:01 63.4 °F /  17.4 °C 60.7 °F /  15.9 °C 29.99in /  1015.5hPa North 2.0mph /  3.2km/h 3.0mph /  4.8km/h 91% 0.00in /  0mm
04:06 63.3 °F /  17.4 °C 60.9 °F /  16.1 °C 29.99in /  1015.5hPa NNW 1.0mph /  1.6km/h 3.0mph /  4.8km/h 92% 0.00in /  0mm
04:11 63.2 °F /  17.3 °C 60.8 °F /  16 °C 29.99in /  1015.5hPa NW 2.0mph /  3.2km/h 3.0mph /  4.8km/h 92% 0.00in /  0mm
04:16 63.1 °F /  17.3 °C 60.7 °F /  15.9 °C 29.99in /  1015.5hPa NE 1.0mph /  1.6km/h 2.0mph /  3.2km/h 92% 0.00in /  0mm
04:21 63.0 °F /  17.2 °C 60.6 °F /  15.9 °C 29.99in /  1015.5hPa NE 3.0mph /  4.8km/h 3.0mph /  4.8km/h 92% 0.00in /  0mm
04:26 63.0 °F /  17.2 °C 60.6 °F /  15.9 °C 29.99in /  1015.5hPa Calm   1.0mph /  1.6km/h 92% 0.00in /  0mm
04:31 62.9 °F /  17.2 °C 60.5 °F /  15.8 °C 29.98in /  1015.1hPa Calm   1.0mph /  1.6km/h 92% 0.00in /  0mm
04:36 63.0 °F /  17.2 °C 60.6 °F /  15.9 °C 29.98in /  1015.1hPa Calm   1.0mph /  1.6km/h 92% 0.00in /  0mm
04:41 63.0 °F /  17.2 °C 60.6 °F /  15.9 °C 29.98in /  1015.1hPa East 1.0mph /  1.6km/h 1.0mph /  1.6km/h 92% 0.00in /  0mm
04:46 63.1 °F /  17.3 °C 60.7 °F /  15.9 °C 29.98in /  1015.1hPa NNE 1.0mph /  1.6km/h 3.0mph /  4.8km/h 92% 0.00in /  0mm
04:51 63.2 °F /  17.3 °C 60.8 °F /  16 °C 29.97in /  1014.8hPa NE 1.0mph /  1.6km/h 1.0mph /  1.6km/h 92% 0.00in /  0mm
04:56 63.3 °F /  17.4 °C 60.9 °F /  16.1 °C 29.97in /  1014.8hPa NE 1.0mph /  1.6km/h 1.0mph /  1.6km/h 92% 0.00in /  0mm
05:01 63.3 °F /  17.4 °C 60.9 °F /  16.1 °C 29.98in /  1015.1hPa NE 1.0mph /  1.6km/h 2.0mph /  3.2km/h 92% 0.00in /  0mm
05:06 63.3 °F /  17.4 °C 60.6 °F /  15.9 °C 29.97in /  1014.8hPa Calm   1.0mph /  1.6km/h 91% 0.00in /  0mm
05:11 63.3 °F /  17.4 °C 60.6 °F /  15.9 °C 29.97in /  1014.8hPa Calm   1.0mph /  1.6km/h 91% 0.00in /  0mm
05:16 63.3 °F /  17.4 °C 60.6 °F /  15.9 °C 29.97in /  1014.8hPa Calm     91% 0.00in /  0mm
05:21 63.2 °F /  17.3 °C 60.8 °F /  16 °C 29.98in /  1015.1hPa Calm     92% 0.00in /  0mm
05:26 63.2 °F /  17.3 °C 60.8 °F /  16 °C 29.98in /  1015.1hPa West 2.0mph /  3.2km/h 2.0mph /  3.2km/h 92% 0.00in /  0mm
05:31 63.1 °F /  17.3 °C 60.7 °F /  15.9 °C 29.98in /  1015.1hPa West 1.0mph /  1.6km/h 2.0mph /  3.2km/h 92% 0.00in /  0mm
05:37 63.0 °F /  17.2 °C 61.0 °F /  16.1 °C 29.98in /  1015.1hPa SW 1.0mph /  1.6km/h 3.0mph /  4.8km/h 93% 0.00in /  0mm
05:41 62.9 °F /  17.2 °C 60.8 °F /  16 °C 29.98in /  1015.1hPa WSW 3.0mph /  4.8km/h 4.0mph /  6.4km/h 93% 0.00in /  0mm
05:47 62.8 °F /  17.1 °C 60.8 °F /  16 °C 29.98in /  1015.1hPa SW 2.0mph /  3.2km/h 5.0mph /  8km/h 93% 0.00in /  0mm
05:52 62.7 °F /  17.1 °C 60.7 °F /  15.9 °C 29.98in /  1015.1hPa SE 1.0mph /  1.6km/h 3.0mph /  4.8km/h 93% 0.00in /  0mm
05:57 62.6 °F /  17 °C 60.5 °F /  15.8 °C 29.98in /  1015.1hPa SW 4.0mph /  6.4km/h 4.0mph /  6.4km/h 93% 0.00in /  0mm
06:02 62.5 °F /  16.9 °C 60.5 °F /  15.8 °C 29.99in /  1015.5hPa SW 7.0mph /  11.3km/h 7.0mph /  11.3km/h 93% 0.00in /  0mm
06:07 62.4 °F /  16.9 °C 60.3 °F /  15.7 °C 29.99in /  1015.5hPa WSW 2.0mph /  3.2km/h 5.0mph /  8km/h 93% 0.00in /  0mm
06:12 62.4 °F /  16.9 °C 60.7 °F /  15.9 °C 30.00in /  1015.8hPa WNW 2.0mph /  3.2km/h 4.0mph /  6.4km/h 94% 0.00in /  0mm
06:17 62.4 °F /  16.9 °C 60.7 °F /  15.9 °C 30.00in /  1015.8hPa WNW 1.0mph /  1.6km/h 3.0mph /  4.8km/h 94% 0.00in /  0mm
06:18 62.4 °F /  16.9 °C 60.7 °F /  15.9 °C 30.00in /  1015.8hPa NW 1.0mph /  1.6km/h 3.0mph /  4.8km/h 94% 0.00in /  0mm
06:23 62.3 °F /  16.8 °C 60.6 °F /  15.9 °C 29.99in /  1015.5hPa Calm   2.0mph /  3.2km/h 94% 0.00in /  0mm
06:28 62.2 °F /  16.8 °C 60.5 °F /  15.8 °C 30.00in /  1015.8hPa West 1.0mph /  1.6km/h 1.0mph /  1.6km/h 94% 0.00in /  0mm
06:33 62.2 °F /  16.8 °C 60.5 °F /  15.8 °C 30.00in /  1015.8hPa Calm     94% 0.00in /  0mm
06:38 62.2 °F /  16.8 °C 60.5 °F /  15.8 °C 30.00in /  1015.8hPa Calm     94% 0.00in /  0mm
06:43 62.2 °F /  16.8 °C 60.5 °F /  15.8 °C 30.01in /  1016.1hPa Calm     94% 0.00in /  0mm
06:48 62.2 °F /  16.8 °C 60.5 °F /  15.8 °C 30.01in /  1016.1hPa Calm     94% 0.00in /  0mm
06:53 62.2 °F /  16.8 °C 60.5 °F /  15.8 °C 30.01in /  1016.1hPa NE 2.0mph /  3.2km/h 4.0mph /  6.4km/h 94% 0.00in /  0mm
06:58 62.3 °F /  16.8 °C 60.6 °F /  15.9 °C 30.01in /  1016.1hPa NE 2.0mph /  3.2km/h 4.0mph /  6.4km/h 94% 0.00in /  0mm
07:03 62.4 °F /  16.9 °C 60.7 °F /  15.9 °C 30.02in /  1016.5hPa Calm   3.0mph /  4.8km/h 94% 0.00in /  0mm
07:08 62.5 °F /  16.9 °C 60.8 °F /  16 °C 30.02in /  1016.5hPa East 3.0mph /  4.8km/h 4.0mph /  6.4km/h 94% 0.00in /  0mm
07:13 62.6 °F /  17 °C 60.8 °F /  16 °C 30.01in /  1016.1hPa Calm   4.0mph /  6.4km/h 94% 0.00in /  0mm
07:18 62.6 °F /  17 °C 60.8 °F /  16 °C 30.02in /  1016.5hPa Calm   1.0mph /  1.6km/h 94% 0.00in /  0mm
07:23 62.6 °F /  17 °C 60.8 °F /  16 °C 30.01in /  1016.1hPa ESE 3.0mph /  4.8km/h 3.0mph /  4.8km/h 94% 0.00in /  0mm
07:28 62.7 °F /  17.1 °C 61.0 °F /  16.1 °C 30.01in /  1016.1hPa NNE 3.0mph /  4.8km/h 3.0mph /  4.8km/h 94% 0.00in /  0mm
07:33 62.8 °F /  17.1 °C 61.0 °F /  16.1 °C 30.01in /  1016.1hPa ENE 2.0mph /  3.2km/h 2.0mph /  3.2km/h 94% 0.00in /  0mm
07:38 62.9 °F /  17.2 °C 61.2 °F /  16.2 °C 30.01in /  1016.1hPa NNW 1.0mph /  1.6km/h 2.0mph /  3.2km/h 94% 0.00in /  0mm
07:43 62.9 °F /  17.2 °C 61.2 °F /  16.2 °C 30.02in /  1016.5hPa North 2.0mph /  3.2km/h 2.0mph /  3.2km/h 94% 0.00in /  0mm
07:48 63.0 °F /  17.2 °C 61.0 °F /  16.1 °C 30.02in /  1016.5hPa NNW 1.0mph /  1.6km/h 2.0mph /  3.2km/h 93% 0.00in /  0mm
07:53 63.0 °F /  17.2 °C 61.0 °F /  16.1 °C 30.02in /  1016.5hPa NE 1.0mph /  1.6km/h 3.0mph /  4.8km/h 93% 0.00in /  0mm
07:58 63.0 °F /  17.2 °C 61.0 °F /  16.1 °C 30.02in /  1016.5hPa Calm   2.0mph /  3.2km/h 93% 0.00in /  0mm
08:04 63.1 °F /  17.3 °C 61.0 °F /  16.1 °C 30.02in /  1016.5hPa Calm   1.0mph /  1.6km/h 93% 0.00in /  0mm
08:09 63.2 °F /  17.3 °C 61.2 °F /  16.2 °C 30.02in /  1016.5hPa Calm     93% 0.00in /  0mm
08:14 63.4 °F /  17.4 °C 61.3 °F /  16.3 °C 30.02in /  1016.5hPa NE 2.0mph /  3.2km/h 3.0mph /  4.8km/h 93% 0.00in /  0mm
08:19 63.5 °F /  17.5 °C 61.4 °F /  16.3 °C 30.02in /  1016.5hPa NNW 1.0mph /  1.6km/h 3.0mph /  4.8km/h 93% 0.00in /  0mm
08:24 63.6 °F /  17.6 °C 61.5 °F /  16.4 °C 30.03in /  1016.8hPa Calm   1.0mph /  1.6km/h 93% 0.00in /  0mm
08:29 63.7 °F /  17.6 °C 61.6 °F /  16.4 °C 30.04in /  1017.2hPa SW 4.0mph /  6.4km/h 5.0mph /  8km/h 93% 0.00in /  0mm
08:34 63.8 °F /  17.7 °C 61.7 °F /  16.5 °C 30.04in /  1017.2hPa West 2.0mph /  3.2km/h 5.0mph /  8km/h 93% 0.00in /  0mm
08:39 63.8 °F /  17.7 °C 61.7 °F /  16.5 °C 30.04in /  1017.2hPa WSW 1.0mph /  1.6km/h 4.0mph /  6.4km/h 93% 0.00in /  0mm
08:44 63.8 °F /  17.7 °C 61.7 °F /  16.5 °C 30.04in /  1017.2hPa West 1.0mph /  1.6km/h 2.0mph /  3.2km/h 93% 0.00in /  0mm
08:49 63.7 °F /  17.6 °C 61.6 °F /  16.4 °C 30.04in /  1017.2hPa West 2.0mph /  3.2km/h 2.0mph /  3.2km/h 93% 0.00in /  0mm
08:54 63.8 °F /  17.7 °C 61.7 °F /  16.5 °C 30.04in /  1017.2hPa WSW 3.0mph /  4.8km/h 3.0mph /  4.8km/h 93% 0.00in /  0mm
08:59 63.9 °F /  17.7 °C 61.8 °F /  16.6 °C 30.04in /  1017.2hPa West 1.0mph /  1.6km/h 1.0mph /  1.6km/h 93% 0.00in /  0mm
09:04 64.0 °F /  17.8 °C 61.9 °F /  16.6 °C 30.04in /  1017.2hPa Calm   1.0mph /  1.6km/h 93% 0.00in /  0mm
09:09 64.2 °F /  17.9 °C 62.1 °F /  16.7 °C 30.04in /  1017.2hPa WSW 1.0mph /  1.6km/h 1.0mph /  1.6km/h 93% 0.00in /  0mm
09:14 64.5 °F /  18.1 °C 62.4 °F /  16.9 °C 30.04in /  1017.2hPa WNW 2.0mph /  3.2km/h 2.0mph /  3.2km/h 93% 0.00in /  0mm
09:19 64.6 °F /  18.1 °C 62.5 °F /  16.9 °C 30.04in /  1017.2hPa WSW 1.0mph /  1.6km/h 2.0mph /  3.2km/h 93% 0.00in /  0mm
09:24 64.9 °F /  18.3 °C 62.8 °F /  17.1 °C 30.04in /  1017.2hPa Calm   2.0mph /  3.2km/h 93% 0.00in /  0mm
09:29 65.3 °F /  18.5 °C 62.9 °F /  17.2 °C 30.04in /  1017.2hPa Calm   2.0mph /  3.2km/h 92% 0.00in /  0mm
09:34 65.8 °F /  18.8 °C 63.4 °F /  17.4 °C 30.04in /  1017.2hPa Calm     92% 0.00in /  0mm
09:39 66.6 °F /  19.2 °C 64.2 °F /  17.9 °C 30.03in /  1016.8hPa Calm   1.0mph /  1.6km/h 92% 0.00in /  0mm
09:44 67.1 °F /  19.5 °C 64.1 °F /  17.8 °C 30.03in /  1016.8hPa West 1.0mph /  1.6km/h 1.0mph /  1.6km/h 90% 0.00in /  0mm
09:49 68.1 °F /  20.1 °C 64.7 °F /  18.2 °C 30.04in /  1017.2hPa Calm   2.0mph /  3.2km/h 89% 0.00in /  0mm
09:54 69.3 °F /  20.7 °C 65.6 °F /  18.7 °C 30.03in /  1016.8hPa Calm   1.0mph /  1.6km/h 88% 0.00in /  0mm
09:55 69.4 °F /  20.8 °C 65.7 °F /  18.7 °C 30.04in /  1017.2hPa Calm   1.0mph /  1.6km/h 88% 0.00in /  0mm
10:00 70.1 °F /  21.2 °C 65.7 °F /  18.7 °C 30.03in /  1016.8hPa NNW 1.0mph /  1.6km/h 2.0mph /  3.2km/h 86% 0.00in /  0mm
10:05 70.3 °F /  21.3 °C 64.9 °F /  18.3 °C 30.03in /  1016.8hPa NE 1.0mph /  1.6km/h 1.0mph /  1.6km/h 83% 0.00in /  0mm
10:10 70.6 °F /  21.4 °C 63.4 °F /  17.4 °C 30.03in /  1016.8hPa Calm   3.0mph /  4.8km/h 78% 0.00in /  0mm
10:15 70.9 °F /  21.6 °C 63.0 °F /  17.2 °C 30.03in /  1016.8hPa Calm   3.0mph /  4.8km/h 76% 0.00in /  0mm
10:20 71.1 °F /  21.7 °C 63.2 °F /  17.3 °C 30.02in /  1016.5hPa NNW 1.0mph /  1.6km/h 4.0mph /  6.4km/h 76% 0.00in /  0mm
10:25 71.3 °F /  21.8 °C 63.0 °F /  17.2 °C 30.02in /  1016.5hPa NNE 1.0mph /  1.6km/h 3.0mph /  4.8km/h 75% 0.00in /  0mm
10:30 71.8 °F /  22.1 °C 63.8 °F /  17.7 °C 30.02in /  1016.5hPa North 2.0mph /  3.2km/h 2.0mph /  3.2km/h 76% 0.00in /  0mm
10:35 71.5 °F /  21.9 °C 62.8 °F /  17.1 °C 30.02in /  1016.5hPa WNW 3.0mph /  4.8km/h 3.0mph /  4.8km/h 74% 0.00in /  0mm
10:40 71.5 °F /  21.9 °C 63.2 °F /  17.3 °C 30.02in /  1016.5hPa West 1.0mph /  1.6km/h 2.0mph /  3.2km/h 75% 0.00in /  0mm
10:45 71.8 °F /  22.1 °C 64.2 °F /  17.9 °C 30.02in /  1016.5hPa Calm   4.0mph /  6.4km/h 77% 0.00in /  0mm
10:51 72.4 °F /  22.4 °C 64.4 °F /  18 °C 30.02in /  1016.5hPa WNW 2.0mph /  3.2km/h 5.0mph /  8km/h 76% 0.00in /  0mm
10:56 72.5 °F /  22.5 °C 63.4 °F /  17.4 °C 30.02in /  1016.5hPa NW 3.0mph /  4.8km/h 6.0mph /  9.7km/h 73% 0.00in /  0mm
11:01 73.0 °F /  22.8 °C 63.8 °F /  17.7 °C 30.02in /  1016.5hPa NE 2.0mph /  3.2km/h 4.0mph /  6.4km/h 73% 0.00in /  0mm
11:06 73.1 °F /  22.8 °C 64.3 °F /  17.9 °C 30.02in /  1016.5hPa NNW 3.0mph /  4.8km/h 5.0mph /  8km/h 74% 0.00in /  0mm
11:11 73.3 °F /  22.9 °C 64.1 °F /  17.8 °C 30.02in /  1016.5hPa NNE 4.0mph /  6.4km/h 5.0mph /  8km/h 73% 0.00in /  0mm
11:16 73.6 °F /  23.1 °C 64.0 °F /  17.8 °C 30.02in /  1016.5hPa North 4.0mph /  6.4km/h 4.0mph /  6.4km/h 72% 0.00in /  0mm
11:21 73.9 °F /  23.3 °C 64.3 °F /  17.9 °C 30.02in /  1016.5hPa WNW 3.0mph /  4.8km/h 3.0mph /  4.8km/h 72% 0.00in /  0mm
11:26 74.4 °F /  23.6 °C 63.6 °F /  17.6 °C 30.02in /  1016.5hPa NW 1.0mph /  1.6km/h 4.0mph /  6.4km/h 69% 0.00in /  0mm
11:31 74.8 °F /  23.8 °C 64.4 °F /  18 °C 30.02in /  1016.5hPa WNW 3.0mph /  4.8km/h 5.0mph /  8km/h 70% 0.00in /  0mm
11:36 74.6 °F /  23.7 °C 63.3 °F /  17.4 °C 30.02in /  1016.5hPa WNW 2.0mph /  3.2km/h 5.0mph /  8km/h 68% 0.00in /  0mm
11:41 74.9 °F /  23.8 °C 62.8 °F /  17.1 °C 30.02in /  1016.5hPa WNW 5.0mph /  8km/h 6.0mph /  9.7km/h 66% 0.00in /  0mm
11:46 74.7 °F /  23.7 °C 61.3 °F /  16.3 °C 30.02in /  1016.5hPa WNW 3.0mph /  4.8km/h 6.0mph /  9.7km/h 63% 0.00in /  0mm
11:51 75.6 °F /  24.2 °C 63.0 °F /  17.2 °C 30.02in /  1016.5hPa NNW 1.0mph /  1.6km/h 4.0mph /  6.4km/h 65% 0.00in /  0mm
11:56 76.1 °F /  24.5 °C 63.0 °F /  17.2 °C 30.02in /  1016.5hPa West 2.0mph /  3.2km/h 6.0mph /  9.7km/h 64% 0.00in /  0mm
12:01 75.9 °F /  24.4 °C 60.1 °F /  15.6 °C 30.02in /  1016.5hPa WNW 5.0mph /  8km/h 5.0mph /  8km/h 58% 0.00in /  0mm
12:06 75.9 °F /  24.4 °C 60.6 °F /  15.9 °C 30.01in /  1016.1hPa SW 2.0mph /  3.2km/h 4.0mph /  6.4km/h 59% 0.00in /  0mm
12:11 75.7 °F /  24.3 °C 60.4 °F /  15.8 °C 30.02in /  1016.5hPa Calm   6.0mph /  9.7km/h 59% 0.00in /  0mm
12:16 75.7 °F /  24.3 °C 62.2 °F /  16.8 °C 30.02in /  1016.5hPa NW 2.0mph /  3.2km/h 4.0mph /  6.4km/h 63% 0.00in /  0mm
12:21 75.9 °F /  24.4 °C 61.0 °F /  16.1 °C 30.02in /  1016.5hPa NE 1.0mph /  1.6km/h 5.0mph /  8km/h 60% 0.00in /  0mm
12:26 76.4 °F /  24.7 °C 62.9 °F /  17.2 °C 30.01in /  1016.1hPa WNW 4.0mph /  6.4km/h 5.0mph /  8km/h 63% 0.00in /  0mm
12:31 76.9 °F /  24.9 °C 63.8 °F /  17.7 °C 30.01in /  1016.1hPa NW 2.0mph /  3.2km/h 8.0mph /  12.9km/h 64% 0.00in /  0mm
12:36 76.9 °F /  24.9 °C 62.0 °F /  16.7 °C 30.01in /  1016.1hPa WSW 5.0mph /  8km/h 5.0mph /  8km/h 60% 0.00in /  0mm
12:41 76.5 °F /  24.7 °C 61.1 °F /  16.2 °C 30.01in /  1016.1hPa NNW 4.0mph /  6.4km/h 6.0mph /  9.7km/h 59% 0.00in /  0mm
12:46 76.3 °F /  24.6 °C 60.9 °F /  16.1 °C 30.01in /  1016.1hPa West 1.0mph /  1.6km/h 5.0mph /  8km/h 59% 0.00in /  0mm
12:51 76.4 °F /  24.7 °C 61.5 °F /  16.4 °C 30.01in /  1016.1hPa WSW 1.0mph /  1.6km/h 5.0mph /  8km/h 60% 0.00in /  0mm
12:56 77.0 °F /  25 °C 62.5 °F /  16.9 °C 30.01in /  1016.1hPa NW 4.0mph /  6.4km/h 6.0mph /  9.7km/h 61% 0.00in /  0mm
13:01 77.6 °F /  25.3 °C 61.7 °F /  16.5 °C 30.01in /  1016.1hPa Calm   3.0mph /  4.8km/h 58% 0.00in /  0mm
13:06 77.9 °F /  25.5 °C 60.5 °F /  15.8 °C 30.01in /  1016.1hPa West 8.0mph /  12.9km/h 9.0mph /  14.5km/h 55% 0.00in /  0mm
13:11 77.3 °F /  25.2 °C 61.4 °F /  16.3 °C 30.00in /  1015.8hPa WNW 3.0mph /  4.8km/h 8.0mph /  12.9km/h 58% 0.00in /  0mm
13:16 77.4 °F /  25.2 °C 61.5 °F /  16.4 °C 30.00in /  1015.8hPa NW 4.0mph /  6.4km/h 5.0mph /  8km/h 58% 0.00in /  0mm
13:21 77.3 °F /  25.2 °C 62.8 °F /  17.1 °C 30.00in /  1015.8hPa SW 5.0mph /  8km/h 6.0mph /  9.7km/h 61% 0.00in /  0mm
13:26 77.6 °F /  25.3 °C 63.6 °F /  17.6 °C 30.00in /  1015.8hPa WNW 3.0mph /  4.8km/h 5.0mph /  8km/h 62% 0.00in /  0mm
13:31 77.8 °F /  25.4 °C 64.7 °F /  18.2 °C 29.99in /  1015.5hPa WNW 7.0mph /  11.3km/h 7.0mph /  11.3km/h 64% 0.00in /  0mm
13:36 78.1 °F /  25.6 °C 64.9 °F /  18.3 °C 30.00in /  1015.8hPa North 7.0mph /  11.3km/h 8.0mph /  12.9km/h 64% 0.00in /  0mm
13:41 78.1 °F /  25.6 °C 64.9 °F /  18.3 °C 29.99in /  1015.5hPa NNW 6.0mph /  9.7km/h 8.0mph /  12.9km/h 64% 0.00in /  0mm
13:47 77.5 °F /  25.3 °C 64.8 °F /  18.2 °C 29.99in /  1015.5hPa WNW 5.0mph /  8km/h 7.0mph /  11.3km/h 65% 0.00in /  0mm
13:52 77.7 °F /  25.4 °C 62.7 °F /  17.1 °C 29.99in /  1015.5hPa West 7.0mph /  11.3km/h 9.0mph /  14.5km/h 60% 0.00in /  0mm
13:57 77.7 °F /  25.4 °C 64.1 °F /  17.8 °C 29.99in /  1015.5hPa WNW 5.0mph /  8km/h 9.0mph /  14.5km/h 63% 0.00in /  0mm
14:02 77.7 °F /  25.4 °C 63.2 °F /  17.3 °C 29.99in /  1015.5hPa WNW 4.0mph /  6.4km/h 9.0mph /  14.5km/h 61% 0.00in /  0mm
14:07 77.6 °F /  25.3 °C 64.0 °F /  17.8 °C 29.99in /  1015.5hPa WNW 4.0mph /  6.4km/h 7.0mph /  11.3km/h 63% 0.00in /  0mm
14:12 77.9 °F /  25.5 °C 64.8 °F /  18.2 °C 29.99in /  1015.5hPa WSW 7.0mph /  11.3km/h 8.0mph /  12.9km/h 64% 0.00in /  0mm
14:17 78.3 °F /  25.7 °C 63.3 °F /  17.4 °C 29.98in /  1015.1hPa West 2.0mph /  3.2km/h 8.0mph /  12.9km/h 60% 0.00in /  0mm
14:22 78.1 °F /  25.6 °C 63.6 °F /  17.6 °C 29.98in /  1015.1hPa WNW 7.0mph /  11.3km/h 9.0mph /  14.5km/h 61% 0.00in /  0mm
14:27 77.7 °F /  25.4 °C 63.7 °F /  17.6 °C 29.98in /  1015.1hPa WNW 7.0mph /  11.3km/h 8.0mph /  12.9km/h 62% 0.00in /  0mm
14:32 78.3 °F /  25.7 °C 62.8 °F /  17.1 °C 29.98in /  1015.1hPa WNW 4.0mph /  6.4km/h 9.0mph /  14.5km/h 59% 0.00in /  0mm
14:37 78.5 °F /  25.8 °C 63.5 °F /  17.5 °C 29.98in /  1015.1hPa West 4.0mph /  6.4km/h 9.0mph /  14.5km/h 60% 0.00in /  0mm
14:42 78.7 °F /  25.9 °C 63.7 °F /  17.6 °C 29.97in /  1014.8hPa WSW 4.0mph /  6.4km/h 8.0mph /  12.9km/h 60% 0.00in /  0mm
14:47 78.6 °F /  25.9 °C 64.5 °F /  18.1 °C 29.97in /  1014.8hPa WNW 5.0mph /  8km/h 9.0mph /  14.5km/h 62% 0.00in /  0mm
14:52 78.4 °F /  25.8 °C 64.8 °F /  18.2 °C 29.97in /  1014.8hPa WNW 3.0mph /  4.8km/h 7.0mph /  11.3km/h 63% 0.00in /  0mm
14:57 78.8 °F /  26 °C 64.2 °F /  17.9 °C 29.97in /  1014.8hPa WNW 6.0mph /  9.7km/h 9.0mph /  14.5km/h 61% 0.00in /  0mm
15:02 78.5 °F /  25.8 °C 64.0 °F /  17.8 °C 29.97in /  1014.8hPa NW 5.0mph /  8km/h 12.0mph /  19.3km/h 61% 0.00in /  0mm
15:07 78.5 °F /  25.8 °C 64.0 °F /  17.8 °C 29.96in /  1014.4hPa WNW 7.0mph /  11.3km/h 10.0mph /  16.1km/h 61% 0.00in /  0mm
15:12 79.0 °F /  26.1 °C 65.3 °F /  18.5 °C 29.96in /  1014.4hPa SW 9.0mph /  14.5km/h 9.0mph /  14.5km/h 63% 0.00in /  0mm
15:17 79.3 °F /  26.3 °C 63.7 °F /  17.6 °C 29.96in /  1014.4hPa WSW 7.0mph /  11.3km/h 15.0mph /  24.1km/h 59% 0.00in /  0mm
15:22 78.9 °F /  26.1 °C 63.8 °F /  17.7 °C 29.96in /  1014.4hPa West 7.0mph /  11.3km/h 11.0mph /  17.7km/h 60% 0.00in /  0mm
15:27 78.7 °F /  25.9 °C 63.2 °F /  17.3 °C 29.95in /  1014.1hPa NW 10.0mph /  16.1km/h 10.0mph /  16.1km/h 59% 0.00in /  0mm
15:32 78.3 °F /  25.7 °C 64.7 °F /  18.2 °C 29.95in /  1014.1hPa West 6.0mph /  9.7km/h 8.0mph /  12.9km/h 63% 0.00in /  0mm
15:38 78.5 °F /  25.8 °C 64.4 °F /  18 °C 29.95in /  1014.1hPa West 4.0mph /  6.4km/h 7.0mph /  11.3km/h 62% 0.00in /  0mm
15:43 78.9 °F /  26.1 °C 64.3 °F /  17.9 °C 29.95in /  1014.1hPa West 5.0mph /  8km/h 11.0mph /  17.7km/h 61% 0.00in /  0mm
15:48 78.4 °F /  25.8 °C 63.8 °F /  17.7 °C 29.95in /  1014.1hPa West 5.0mph /  8km/h 9.0mph /  14.5km/h 61% 0.00in /  0mm
15:53 79.2 °F /  26.2 °C 64.6 °F /  18.1 °C 29.94in /  1013.8hPa West 4.0mph /  6.4km/h 8.0mph /  12.9km/h 61% 0.00in /  0mm
15:58 78.9 °F /  26.1 °C 64.8 °F /  18.2 °C 29.94in /  1013.8hPa WSW 5.0mph /  8km/h 10.0mph /  16.1km/h 62% 0.00in /  0mm
16:03 79.0 °F /  26.1 °C 65.3 °F /  18.5 °C 29.94in /  1013.8hPa WSW 4.0mph /  6.4km/h 11.0mph /  17.7km/h 63% 0.00in /  0mm
16:08 78.8 °F /  26 °C 63.3 °F /  17.4 °C 29.94in /  1013.8hPa WNW 5.0mph /  8km/h 7.0mph /  11.3km/h 59% 0.00in /  0mm
16:13 78.7 °F /  25.9 °C 63.7 °F /  17.6 °C 29.93in /  1013.4hPa WNW 8.0mph /  12.9km/h 8.0mph /  12.9km/h 60% 0.00in /  0mm
16:18 78.8 °F /  26 °C 63.8 °F /  17.7 °C 29.94in /  1013.8hPa NW 5.0mph /  8km/h 9.0mph /  14.5km/h 60% 0.00in /  0mm
16:23 78.6 °F /  25.9 °C 63.6 °F /  17.6 °C 29.93in /  1013.4hPa WNW 5.0mph /  8km/h 7.0mph /  11.3km/h 60% 0.00in /  0mm
16:28 78.2 °F /  25.7 °C 63.7 °F /  17.6 °C 29.93in /  1013.4hPa WNW 7.0mph /  11.3km/h 7.0mph /  11.3km/h 61% 0.00in /  0mm
16:33 78.5 °F /  25.8 °C 64.9 °F /  18.3 °C 29.93in /  1013.4hPa West 9.0mph /  14.5km/h 9.0mph /  14.5km/h 63% 0.00in /  0mm
16:39 78.5 °F /  25.8 °C 64.0 °F /  17.8 °C 29.93in /  1013.4hPa WSW 5.0mph /  8km/h 10.0mph /  16.1km/h 61% 0.00in /  0mm
16:44 78.6 °F /  25.9 °C 64.0 °F /  17.8 °C 29.93in /  1013.4hPa West 5.0mph /  8km/h 9.0mph /  14.5km/h 61% 0.00in /  0mm
16:49 78.6 °F /  25.9 °C 64.0 °F /  17.8 °C 29.92in /  1013.1hPa WSW 5.0mph /  8km/h 9.0mph /  14.5km/h 61% 0.00in /  0mm
16:54 78.4 °F /  25.8 °C 63.4 °F /  17.4 °C 29.92in /  1013.1hPa SW 4.0mph /  6.4km/h 8.0mph /  12.9km/h 60% 0.00in /  0mm
16:58 78.6 °F /  25.9 °C 64.5 °F /  18.1 °C 29.92in /  1013.1hPa WSW 9.0mph /  14.5km/h 9.0mph /  14.5km/h 62% 0.00in /  0mm
16:59 78.6 °F /  25.9 °C 64.0 °F /  17.8 °C 29.92in /  1013.1hPa SW 7.0mph /  11.3km/h 9.0mph /  14.5km/h 61% 0.00in /  0mm
17:04 78.5 °F /  25.8 °C 64.0 °F /  17.8 °C 29.92in /  1013.1hPa West 3.0mph /  4.8km/h 8.0mph /  12.9km/h 61% 0.00in /  0mm
17:10 78.7 °F /  25.9 °C 65.5 °F /  18.6 °C 29.92in /  1013.1hPa WNW 3.0mph /  4.8km/h 7.0mph /  11.3km/h 64% 0.00in /  0mm
17:13 78.8 °F /  26 °C 63.8 °F /  17.7 °C 29.93in /  1013.4hPa WNW 6.0mph /  9.7km/h 9.0mph /  14.5km/h 60% 0.00in /  0mm
17:14 78.8 °F /  26 °C 63.8 °F /  17.7 °C 29.93in /  1013.4hPa WNW 4.0mph /  6.4km/h 9.0mph /  14.5km/h 60% 0.00in /  0mm
17:15 78.7 °F /  25.9 °C 64.1 °F /  17.8 °C 29.93in /  1013.4hPa West 4.0mph /  6.4km/h 9.0mph /  14.5km/h 61% 0.00in /  0mm
17:20 78.5 °F /  25.8 °C 64.9 °F /  18.3 °C 29.93in /  1013.4hPa West 2.0mph /  3.2km/h 9.0mph /  14.5km/h 63% 0.00in /  0mm
17:25 78.6 °F /  25.9 °C 64.5 °F /  18.1 °C 29.92in /  1013.1hPa West 7.0mph /  11.3km/h 9.0mph /  14.5km/h 62% 0.00in /  0mm
17:30 78.7 °F /  25.9 °C 66.0 °F /  18.9 °C 29.92in /  1013.1hPa West 5.0mph /  8km/h 8.0mph /  12.9km/h 65% 0.00in /  0mm
17:35 78.6 °F /  25.9 °C 64.5 °F /  18.1 °C 29.92in /  1013.1hPa WSW 3.0mph /  4.8km/h 6.0mph /  9.7km/h 62% 0.00in /  0mm
17:41 78.5 °F /  25.8 °C 65.8 °F /  18.8 °C 29.92in /  1013.1hPa West 3.0mph /  4.8km/h 9.0mph /  14.5km/h 65% 0.00in /  0mm
17:46 78.3 °F /  25.7 °C 65.1 °F /  18.4 °C 29.92in /  1013.1hPa WNW 7.0mph /  11.3km/h 8.0mph /  12.9km/h 64% 0.00in /  0mm
17:51 77.7 °F /  25.4 °C 64.6 °F /  18.1 °C 29.91in /  1012.8hPa West 3.0mph /  4.8km/h 7.0mph /  11.3km/h 64% 0.00in /  0mm
17:56 77.4 °F /  25.2 °C 65.2 °F /  18.4 °C 29.91in /  1012.8hPa NW 4.0mph /  6.4km/h 7.0mph /  11.3km/h 66% 0.00in /  0mm
18:01 77.3 °F /  25.2 °C 65.5 °F /  18.6 °C 29.91in /  1012.8hPa West 1.0mph /  1.6km/h 5.0mph /  8km/h 67% 0.00in /  0mm
18:06 77.1 °F /  25.1 °C 66.2 °F /  19 °C 29.91in /  1012.8hPa WSW 2.0mph /  3.2km/h 4.0mph /  6.4km/h 69% 0.00in /  0mm
18:11 77.1 °F /  25.1 °C 65.7 °F /  18.7 °C 29.91in /  1012.8hPa West 2.0mph /  3.2km/h 5.0mph /  8km/h 68% 0.00in /  0mm
18:16 77.3 °F /  25.2 °C 65.5 °F /  18.6 °C 29.90in /  1012.4hPa NW 5.0mph /  8km/h 7.0mph /  11.3km/h 67% 0.00in /  0mm
18:21 77.4 °F /  25.2 °C 66.0 °F /  18.9 °C 29.90in /  1012.4hPa NW 6.0mph /  9.7km/h 6.0mph /  9.7km/h 68% 0.00in /  0mm
18:26 77.5 °F /  25.3 °C 66.9 °F /  19.4 °C 29.90in /  1012.4hPa WNW 4.0mph /  6.4km/h 7.0mph /  11.3km/h 70% 0.00in /  0mm
18:31 77.2 °F /  25.1 °C 66.2 °F /  19 °C 29.90in /  1012.4hPa WNW 4.0mph /  6.4km/h 8.0mph /  12.9km/h 69% 0.00in /  0mm
18:36 76.8 °F /  24.9 °C 66.7 °F /  19.3 °C 29.90in /  1012.4hPa WSW 6.0mph /  9.7km/h 7.0mph /  11.3km/h 71% 0.00in /  0mm
18:41 76.5 °F /  24.7 °C 66.4 °F /  19.1 °C 29.90in /  1012.4hPa WNW 7.0mph /  11.3km/h 11.0mph /  17.7km/h 71% 0.00in /  0mm
18:46 76.1 °F /  24.5 °C 66.0 °F /  18.9 °C 29.90in /  1012.4hPa WNW 5.0mph /  8km/h 10.0mph /  16.1km/h 71% 0.00in /  0mm
18:51 76.0 °F /  24.4 °C 66.3 °F /  19.1 °C 29.91in /  1012.8hPa West 4.0mph /  6.4km/h 8.0mph /  12.9km/h 72% 0.00in /  0mm
18:56 76.0 °F /  24.4 °C 66.7 °F /  19.3 °C 29.90in /  1012.4hPa SE 1.0mph /  1.6km/h 5.0mph /  8km/h 73% 0.00in /  0mm
19:01 75.9 °F /  24.4 °C 66.6 °F /  19.2 °C 29.90in /  1012.4hPa NW 4.0mph /  6.4km/h 6.0mph /  9.7km/h 73% 0.00in /  0mm
19:06 75.7 °F /  24.3 °C 66.8 °F /  19.3 °C 29.90in /  1012.4hPa West 3.0mph /  4.8km/h 5.0mph /  8km/h 74% 0.00in /  0mm
19:11 75.5 °F /  24.2 °C 67.0 °F /  19.4 °C 29.90in /  1012.4hPa WNW 2.0mph /  3.2km/h 4.0mph /  6.4km/h 75% 0.00in /  0mm
19:16 75.4 °F /  24.1 °C 67.3 °F /  19.6 °C 29.90in /  1012.4hPa West 3.0mph /  4.8km/h 3.0mph /  4.8km/h 76% 0.00in /  0mm
19:22 75.3 °F /  24.1 °C 67.2 °F /  19.6 °C 29.90in /  1012.4hPa WNW 2.0mph /  3.2km/h 2.0mph /  3.2km/h 76% 0.00in /  0mm
19:27 75.2 °F /  24 °C 67.1 °F /  19.5 °C 29.90in /  1012.4hPa SW 1.0mph /  1.6km/h 4.0mph /  6.4km/h 76% 0.00in /  0mm
19:32 75.2 °F /  24 °C 67.1 °F /  19.5 °C 29.90in /  1012.4hPa West 2.0mph /  3.2km/h 5.0mph /  8km/h 76% 0.00in /  0mm
19:37 75.3 °F /  24.1 °C 67.2 °F /  19.6 °C 29.90in /  1012.4hPa WNW 3.0mph /  4.8km/h 5.0mph /  8km/h 76% 0.00in /  0mm
19:42 75.3 °F /  24.1 °C 67.2 °F /  19.6 °C 29.90in /  1012.4hPa West 3.0mph /  4.8km/h 3.0mph /  4.8km/h 76% 0.00in /  0mm
19:47 75.4 °F /  24.1 °C 67.3 °F /  19.6 °C 29.90in /  1012.4hPa West 1.0mph /  1.6km/h 3.0mph /  4.8km/h 76% 0.00in /  0mm
19:52 75.3 °F /  24.1 °C 66.8 °F /  19.3 °C 29.90in /  1012.4hPa West 2.0mph /  3.2km/h 3.0mph /  4.8km/h 75% 0.00in /  0mm
19:57 75.1 °F /  23.9 °C 67.0 °F /  19.4 °C 29.90in /  1012.4hPa West 1.0mph /  1.6km/h 3.0mph /  4.8km/h 76% 0.00in /  0mm
20:02 74.9 °F /  23.8 °C 66.8 °F /  19.3 °C 29.90in /  1012.4hPa West 1.0mph /  1.6km/h 3.0mph /  4.8km/h 76% 0.00in /  0mm
20:07 74.7 °F /  23.7 °C 67.0 °F /  19.4 °C 29.90in /  1012.4hPa Calm   2.0mph /  3.2km/h 77% 0.00in /  0mm
20:12 74.8 °F /  23.8 °C 67.1 °F /  19.5 °C 29.91in /  1012.8hPa WNW 1.0mph /  1.6km/h 1.0mph /  1.6km/h 77% 0.00in /  0mm
20:17 74.7 °F /  23.7 °C 67.0 °F /  19.4 °C 29.91in /  1012.8hPa Calm   1.0mph /  1.6km/h 77% 0.00in /  0mm
20:22 74.4 °F /  23.6 °C 67.1 °F /  19.5 °C 29.91in /  1012.8hPa Calm   1.0mph /  1.6km/h 78% 0.00in /  0mm
20:27 74.2 °F /  23.4 °C 66.9 °F /  19.4 °C 29.91in /  1012.8hPa WSW 1.0mph /  1.6km/h 2.0mph /  3.2km/h 78% 0.00in /  0mm
20:32 74.0 °F /  23.3 °C 67.4 °F /  19.7 °C 29.90in /  1012.4hPa SW 1.0mph /  1.6km/h 1.0mph /  1.6km/h 80% 0.00in /  0mm
20:37 73.7 °F /  23.2 °C 67.5 °F /  19.7 °C 29.90in /  1012.4hPa SSW 1.0mph /  1.6km/h 1.0mph /  1.6km/h 81% 0.00in /  0mm
20:42 73.3 °F /  22.9 °C 67.1 °F /  19.5 °C 29.91in /  1012.8hPa South 1.0mph /  1.6km/h 1.0mph /  1.6km/h 81% 0.00in /  0mm
20:47 73.0 °F /  22.8 °C 67.2 °F /  19.6 °C 29.90in /  1012.4hPa SSE 2.0mph /  3.2km/h 3.0mph /  4.8km/h 82% 0.00in /  0mm
20:52 72.6 °F /  22.6 °C 67.2 °F /  19.6 °C 29.91in /  1012.8hPa WNW 9.0mph /  14.5km/h 9.0mph /  14.5km/h 83% 0.00in /  0mm
20:57 70.3 °F /  21.3 °C 64.9 °F /  18.3 °C 29.90in /  1012.4hPa North 34.0mph /  54.7km/h 34.0mph /  54.7km/h 83% 0.00in /  0mm
21:03 66.2 °F /  19 °C 62.5 °F /  16.9 °C 29.93in /  1013.4hPa North 11.0mph /  17.7km/h 16.0mph /  25.7km/h 88% 2.68in /  68.07mm
21:08 65.0 °F /  18.3 °C 62.6 °F /  17 °C 29.92in /  1013.1hPa NNW 5.0mph /  8km/h 10.0mph /  16.1km/h 92% 0.50in /  12.7mm
21:13 64.8 °F /  18.2 °C 62.7 °F /  17.1 °C 29.92in /  1013.1hPa NE 7.0mph /  11.3km/h 9.0mph /  14.5km/h 93% 0.14in /  3.56mm
21:18 64.6 °F /  18.1 °C 62.5 °F /  16.9 °C 29.92in /  1013.1hPa NNE 4.0mph /  6.4km/h 9.0mph /  14.5km/h 93% 0.35in /  8.89mm
21:23 64.5 °F /  18.1 °C 62.4 °F /  16.9 °C 29.94in /  1013.8hPa NNE 6.0mph /  9.7km/h 11.0mph /  17.7km/h 93% 2.55in /  64.77mm
21:28 63.7 °F /  17.6 °C 61.6 °F /  16.4 °C 29.93in /  1013.4hPa East 9.0mph /  14.5km/h 16.0mph /  25.7km/h 93% 2.76in /  70.1mm
21:33 63.9 °F /  17.7 °C 61.8 °F /  16.6 °C 29.93in /  1013.4hPa East 3.0mph /  4.8km/h 9.0mph /  14.5km/h 93% 0.80in /  20.32mm
21:38 64.2 °F /  17.9 °C 62.1 °F /  16.7 °C 29.94in /  1013.8hPa ESE 2.0mph /  3.2km/h 5.0mph /  8km/h 93% 0.26in /  6.6mm
21:43 64.3 °F /  17.9 °C 62.2 °F /  16.8 °C 29.94in /  1013.8hPa East 1.0mph /  1.6km/h 5.0mph /  8km/h 93% 0.11in /  2.79mm
21:48 64.4 °F /  18 °C 62.6 °F /  17 °C 29.95in /  1014.1hPa NNE 3.0mph /  4.8km/h 4.0mph /  6.4km/h 94% 0.14in /  3.56mm
21:53 64.5 °F /  18.1 °C 62.7 °F /  17.1 °C 29.97in /  1014.8hPa North 7.0mph /  11.3km/h 7.0mph /  11.3km/h 94% 0.08in /  2.03mm
21:58 64.0 °F /  17.8 °C 62.2 °F /  16.8 °C 29.98in /  1015.1hPa NNE 13.0mph /  20.9km/h 21.0mph /  33.8km/h 94% 0.05in /  1.27mm
22:03 61.6 °F /  16.4 °C 59.3 °F /  15.2 °C 29.97in /  1014.8hPa NE 17.0mph /  27.4km/h 22.0mph /  35.4km/h 92% 0.00in /  0mm
22:08 61.1 °F /  16.2 °C 59.4 °F /  15.2 °C 29.97in /  1014.8hPa NNE 14.0mph /  22.5km/h 15.0mph /  24.1km/h 94% 0.93in /  23.62mm
22:13 61.2 °F /  16.2 °C 59.5 °F /  15.3 °C 29.95in /  1014.1hPa NE 6.0mph /  9.7km/h 14.0mph /  22.5km/h 94% 0.64in /  16.26mm
22:18 61.4 °F /  16.3 °C 59.7 °F /  15.4 °C 29.95in /  1014.1hPa NE 4.0mph /  6.4km/h 6.0mph /  9.7km/h 94% 0.51in /  12.95mm
22:23 61.2 °F /  16.2 °C 59.5 °F /  15.3 °C 29.94in /  1013.8hPa NE 9.0mph /  14.5km/h 14.0mph /  22.5km/h 94% 0.15in /  3.81mm
22:28 60.9 °F /  16.1 °C 59.2 °F /  15.1 °C 29.95in /  1014.1hPa East 3.0mph /  4.8km/h 8.0mph /  12.9km/h 94% 0.12in /  3.05mm
22:33 60.6 °F /  15.9 °C 58.9 °F /  14.9 °C 29.94in /  1013.8hPa East 2.0mph /  3.2km/h 5.0mph /  8km/h 94% 0.11in /  2.79mm
22:38 60.5 °F /  15.8 °C 58.8 °F /  14.9 °C 29.94in /  1013.8hPa SE 2.0mph /  3.2km/h 4.0mph /  6.4km/h 94% 0.07in /  1.78mm
22:43 60.5 °F /  15.8 °C 58.8 °F /  14.9 °C 29.95in /  1014.1hPa SE 8.0mph /  12.9km/h 8.0mph /  12.9km/h 94% 0.04in /  1.02mm
22:49 60.6 °F /  15.9 °C 58.9 °F /  14.9 °C 29.95in /  1014.1hPa SE 5.0mph /  8km/h 7.0mph /  11.3km/h 94% 0.00in /  0mm
22:54 60.6 °F /  15.9 °C 58.9 °F /  14.9 °C 29.95in /  1014.1hPa ESE 6.0mph /  9.7km/h 8.0mph /  12.9km/h 94% 0.00in /  0mm
22:59 60.6 °F /  15.9 °C 58.9 °F /  14.9 °C 29.94in /  1013.8hPa SE 1.0mph /  1.6km/h 5.0mph /  8km/h 94% 0.00in /  0mm
23:04 60.6 °F /  15.9 °C 58.9 °F /  14.9 °C 29.94in /  1013.8hPa Calm     94% 0.00in /  0mm
23:09 60.5 °F /  15.8 °C 58.8 °F /  14.9 °C 29.95in /  1014.1hPa NW 1.0mph /  1.6km/h 2.0mph /  3.2km/h 94% 0.00in /  0mm
23:14 60.4 °F /  15.8 °C 58.7 °F /  14.8 °C 29.95in /  1014.1hPa NNW 2.0mph /  3.2km/h 3.0mph /  4.8km/h 94% 0.00in /  0mm
23:19 60.3 °F /  15.7 °C 58.6 °F /  14.8 °C 29.95in /  1014.1hPa NNW 4.0mph /  6.4km/h 4.0mph /  6.4km/h 94% 0.00in /  0mm
23:24 60.3 °F /  15.7 °C 58.6 °F /  14.8 °C 29.95in /  1014.1hPa NNE 4.0mph /  6.4km/h 6.0mph /  9.7km/h 94% 0.00in /  0mm
23:29 60.1 °F /  15.6 °C 58.4 °F /  14.7 °C 29.95in /  1014.1hPa NW 4.0mph /  6.4km/h 6.0mph /  9.7km/h 94% 0.00in /  0mm
23:34 60.0 °F /  15.6 °C 58.3 °F /  14.6 °C 29.96in /  1014.4hPa North 2.0mph /  3.2km/h 4.0mph /  6.4km/h 94% 0.00in /  0mm
23:39 60.0 °F /  15.6 °C 58.3 °F /  14.6 °C 29.96in /  1014.4hPa Calm   4.0mph /  6.4km/h 94% 0.00in /  0mm
23:44 59.9 °F /  15.5 °C 58.2 °F /  14.6 °C 29.96in /  1014.4hPa WSW 1.0mph /  1.6km/h 2.0mph /  3.2km/h 94% 0.00in /  0mm
23:49 59.9 °F /  15.5 °C 58.2 °F /  14.6 °C 29.95in /  1014.1hPa Calm   2.0mph /  3.2km/h 94% 0.00in /  0mm
23:54 59.9 °F /  15.5 °C 58.2 °F /  14.6 °C 29.95in /  1014.1hPa West 1.0mph /  1.6km/h 1.0mph /  1.6km/h 94% 0.00in /  0mm
23:59 60.0 °F /  15.6 °C 58.3 °F /  14.6 °C 29.96in /  1014.4hPa SW 2.0mph /  3.2km/h 3.0mph /  4.8km/h 94% 0.00in /  0mm
Compliments of Weather Underground